KFFX

Fremont Municipal Airport

Fremont, Michigan, USA
METAR KFFX 232219Z AUTO 27007G14KT 3SM BR OVC007 02/00 A3017 RMK AO2 T00240003
Observed Flight Rules
Feb-23 @ 22:19 UTC (14 minutes ago) Instrument Flight Rules
Wind Visibility Clouds Conditions
270° at 7 knots
 Gusting to 14 knots
3 miles
  • Overcast at 700' AGL
  • Mist
Temperatures Readings
Current 2°C / 36°F
Dewpoint 0°C / 32°F
Humidity 87%
Altimeter 30.17" Hg
Pressure 1022 hPa
Elevation 236
METAR KFFX 232219Z AUTO 27007G14KT 3SM BR OVC007 02/00 A3017 RMK AO2 T00240003
Observed Flight Rules
Feb-23 @ 22:19 UTC
(14 minutes ago)
IFR
Wind Visibility
270° at 7 knots
 Gusting to 14 knots
3 miles
Clouds
  • Overcast at 700' AGL
Conditions
  • Mist
Temperature Dewpoint
2°C / 36°F 0°C / 32°F
Humidity Altimeter Pressure
87% 30.17" Hg 1022 hPa